Time;durP1;ratioP1;P1;durP2;ratioP2;P2;SDS_P1;SDS_P2;PMS_P1;PMS_P2;Temp;Humidity;BMP_temperature;BMP_pressure;BME280_temperature;BME280_humidity;BME280_pressure;Samples;Min_cycle;Max_cycle;Signal;HPM_P1;HPM_P2
2024/03/07 00:01:26;;;;;;;22.33;17.03;;;3.70;99.90;;;;;;5104855;27;20069;-75
2024/03/07 00:03:52;;;;;;;24.87;18.50;;;3.70;99.90;;;;;;5132056;27;20027;-76
2024/03/07 00:06:17;;;;;;;20.53;17.07;;;3.70;99.90;;;;;;5132410;27;20494;-75
2024/03/07 00:08:43;;;;;;;21.83;17.77;;;3.70;99.90;;;;;;5132249;27;20113;-75
2024/03/07 00:11:09;;;;;;;23.73;18.70;;;3.70;99.90;;;;;;5132833;27;20023;-76
2024/03/07 00:13:34;;;;;;;23.13;18.13;;;3.70;99.90;;;;;;5132650;27;20023;-75
2024/03/07 00:16:01;;;;;;;24.83;17.23;;;3.70;99.90;;;;;;5131492;27;20048;-75
2024/03/07 00:18:27;;;;;;;22.77;17.83;;;3.70;99.90;;;;;;5117668;27;20092;-75
2024/03/07 00:20:54;;;;;;;23.17;17.20;;;3.70;99.90;;;;;;5111727;28;20035;-75
2024/03/07 00:23:20;;;;;;;24.87;18.30;;;3.70;99.90;;;;;;5111492;28;20485;-75
2024/03/07 00:25:48;;;;;;;25.47;19.70;;;3.70;99.90;;;;;;5111490;28;20076;-75
2024/03/07 00:28:17;;;;;;;26.03;18.87;;;3.70;99.90;;;;;;5111755;28;20043;-75
2024/03/07 00:30:45;;;;;;;25.53;18.93;;;3.70;99.90;;;;;;5111979;28;20115;-75
2024/03/07 00:33:13;;;;;;;23.23;18.33;;;3.70;99.90;;;;;;5111474;28;20028;-76
2024/03/07 00:35:39;;;;;;;27.70;19.43;;;3.70;99.90;;;;;;5111141;28;20037;-75
2024/03/07 00:38:04;;;;;;;27.30;20.00;;;3.60;99.90;;;;;;5111491;28;20601;-75
2024/03/07 00:40:32;;;;;;;26.87;19.70;;;3.60;99.90;;;;;;5108878;28;20491;-76
2024/03/07 00:42:59;;;;;;;27.40;19.90;;;3.70;99.90;;;;;;5100243;28;20031;-75
2024/03/07 00:45:24;;;;;;;28.77;20.30;;;3.70;99.90;;;;;;5090708;28;20093;-76
2024/03/07 00:47:50;;;;;;;28.90;19.77;;;3.70;99.90;;;;;;5091028;28;20468;-75
2024/03/07 00:50:15;;;;;;;26.83;20.10;;;3.70;99.90;;;;;;5090954;28;20020;-76
2024/03/07 00:52:41;;;;;;;28.43;20.53;;;3.70;99.90;;;;;;5091173;28;20067;-76
2024/03/07 00:55:10;;;;;;;29.27;20.60;;;3.70;99.90;;;;;;5090742;28;20052;-76
2024/03/07 00:57:36;;;;;;;29.07;20.47;;;3.60;99.90;;;;;;5090904;28;20542;-75
2024/03/07 01:00:03;;;;;;;35.43;23.60;;;3.60;99.90;;;;;;5091004;28;20020;-75
2024/03/07 01:02:30;;;;;;;31.33;20.33;;;3.60;99.90;;;;;;5121314;28;20076;-75
2024/03/07 01:04:55;;;;;;;29.83;21.27;;;3.70;99.90;;;;;;5130983;27;20038;-75
2024/03/07 01:07:23;;;;;;;29.83;21.47;;;3.60;99.90;;;;;;5132004;28;20023;-75
2024/03/07 01:09:49;;;;;;;31.03;21.23;;;3.60;99.90;;;;;;5132104;28;20031;-75
2024/03/07 01:12:14;;;;;;;30.40;20.07;;;3.70;99.90;;;;;;5131785;28;20696;-76
2024/03/07 01:14:40;;;;;;;30.57;20.67;;;3.60;99.90;;;;;;5131576;27;20029;-75
2024/03/07 01:17:07;;;;;;;29.93;21.17;;;3.60;99.90;;;;;;5131905;28;20097;-75
2024/03/07 01:19:33;;;;;;;31.23;21.03;;;3.60;99.90;;;;;;5131476;28;20425;-75
2024/03/07 01:21:59;;;;;;;30.33;21.10;;;3.60;99.90;;;;;;5131824;28;20031;-75
2024/03/07 01:24:24;;;;;;;33.50;20.83;;;3.60;99.90;;;;;;5131275;27;20026;-75
2024/03/07 01:26:50;;;;;;;28.80;20.17;;;3.60;99.90;;;;;;5134197;27;20031;-75
2024/03/07 01:29:15;;;;;;;29.37;20.93;;;3.60;99.90;;;;;;5135581;27;20026;-75
2024/03/07 01:31:41;;;;;;;31.17;21.37;;;3.60;99.90;;;;;;5135501;27;20035;-75
2024/03/07 01:34:06;;;;;;;30.33;20.80;;;3.50;99.90;;;;;;5130397;27;20050;-76
2024/03/07 01:36:32;;;;;;;30.60;20.93;;;3.50;99.90;;;;;;5114489;28;20024;-75
2024/03/07 01:38:58;;;;;;;30.20;20.03;;;3.50;99.90;;;;;;5115043;28;20019;-75
2024/03/07 01:41:24;;;;;;;30.63;20.87;;;3.50;99.90;;;;;;5108382;28;20047;-76
2024/03/07 01:43:49;;;;;;;29.77;19.77;;;3.50;99.90;;;;;;5099081;28;20441;-75
2024/03/07 01:46:15;;;;;;;33.13;22.03;;;3.50;99.90;;;;;;5093938;28;20043;-75
2024/03/07 01:48:41;;;;;;;32.77;21.53;;;3.50;99.90;;;;;;5112935;27;20438;-75
2024/03/07 01:51:08;;;;;;;31.43;21.63;;;3.50;99.90;;;;;;5135294;27;20019;-75
2024/03/07 01:53:34;;;;;;;33.53;21.27;;;3.50;99.90;;;;;;5135275;27;20099;-75
2024/03/07 01:56:02;;;;;;;33.03;22.00;;;3.60;99.90;;;;;;5134580;27;20058;-75
2024/03/07 01:58:29;;;;;;;34.90;22.50;;;3.50;99.90;;;;;;5134732;27;20023;-75
2024/03/07 02:00:54;;;;;;;36.23;22.27;;;3.50;99.90;;;;;;5134389;27;20114;-75
2024/03/07 02:03:20;;;;;;;35.37;21.63;;;3.50;99.90;;;;;;5134181;27;20051;-76
2024/03/07 02:05:46;;;;;;;32.57;21.73;;;3.60;99.90;;;;;;5134220;27;20023;-76
2024/03/07 02:08:11;;;;;;;33.60;21.70;;;3.60;99.90;;;;;;5134821;27;20054;-75
2024/03/07 02:10:38;;;;;;;35.70;22.37;;;3.60;99.90;;;;;;5135014;27;20103;-75
2024/03/07 02:13:03;;;;;;;31.80;21.60;;;3.60;99.90;;;;;;5134802;27;20156;-75
2024/03/07 02:15:29;;;;;;;34.07;22.87;;;3.60;99.90;;;;;;5134333;27;20051;-75
2024/03/07 02:17:55;;;;;;;33.40;22.27;;;3.60;99.90;;;;;;5134710;27;20055;-75
2024/03/07 02:20:20;;;;;;;33.57;21.17;;;3.60;99.90;;;;;;5134855;27;20102;-76
2024/03/07 02:22:46;;;;;;;33.37;22.23;;;3.60;99.90;;;;;;5134633;27;20019;-75
2024/03/07 02:25:12;;;;;;;33.43;21.70;;;3.60;99.90;;;;;;5114599;27;20024;-75
2024/03/07 02:27:38;;;;;;;35.70;22.67;;;3.60;99.90;;;;;;5114010;28;20431;-75
2024/03/07 02:30:05;;;;;;;37.93;22.20;;;3.60;99.90;;;;;;5113849;28;20096;-75
2024/03/07 02:32:31;;;;;;;32.13;21.20;;;3.60;99.90;;;;;;5113738;28;20488;-75
2024/03/07 02:34:56;;;;;;;37.00;23.20;;;3.60;99.90;;;;;;5113590;28;20016;-75
2024/03/07 02:37:22;;;;;;;31.87;21.77;;;3.70;99.90;;;;;;5113315;28;20023;-75
2024/03/07 02:39:47;;;;;;;34.17;22.50;;;3.60;99.90;;;;;;5113726;28;20024;-75
2024/03/07 02:42:13;;;;;;;33.13;22.33;;;3.60;99.90;;;;;;5105361;28;20126;-75
2024/03/07 02:44:40;;;;;;;32.93;22.30;;;3.60;99.90;;;;;;5092725;28;20087;-76
2024/03/07 02:47:06;;;;;;;32.87;22.30;;;3.60;99.90;;;;;;5093133;28;20125;-76
2024/03/07 02:49:32;;;;;;;34.80;22.77;;;3.70;99.90;;;;;;5093060;28;20083;-76
2024/03/07 02:51:57;;;;;;;36.70;23.63;;;3.70;99.90;;;;;;5093440;28;20024;-76
2024/03/07 02:54:23;;;;;;;35.40;23.03;;;3.60;99.90;;;;;;5092670;28;20397;-76
2024/03/07 02:56:49;;;;;;;35.03;22.43;;;3.60;99.90;;;;;;5093011;28;20024;-75
2024/03/07 02:59:14;;;;;;;33.30;22.83;;;3.60;99.90;;;;;;5093051;28;20024;-75
2024/03/07 03:01:40;;;;;;;35.83;23.90;;;3.60;99.90;;;;;;5110342;27;20824;-75
2024/03/07 03:04:06;;;;;;;37.27;23.83;;;3.60;99.90;;;;;;5133526;27;20038;-75
2024/03/07 03:06:31;;;;;;;36.83;24.57;;;3.60;99.90;;;;;;5133870;27;20020;-75
2024/03/07 03:08:58;;;;;;;37.67;23.80;;;3.60;99.90;;;;;;5133790;27;20058;-76
2024/03/07 03:11:25;;;;;;;34.93;22.73;;;3.60;99.90;;;;;;5133854;27;20030;-75
2024/03/07 03:13:51;;;;;;;37.73;23.83;;;3.50;99.90;;;;;;5133209;27;20038;-75
2024/03/07 03:16:17;;;;;;;38.50;24.83;;;3.50;99.90;;;;;;5132937;27;20045;-76
2024/03/07 03:18:43;;;;;;;40.53;26.23;;;3.50;99.90;;;;;;5133909;27;20030;-76
2024/03/07 03:21:08;;;;;;;39.43;25.63;;;3.40;99.90;;;;;;5133721;27;20475;-75
2024/03/07 03:23:34;;;;;;;44.17;26.00;;;3.40;99.90;;;;;;5133488;27;20024;-76
2024/03/07 03:26:00;;;;;;;39.97;25.60;;;3.40;99.90;;;;;;5133119;27;20046;-75
2024/03/07 03:28:25;;;;;;;40.67;25.80;;;3.40;99.90;;;;;;5133072;27;20019;-76
2024/03/07 03:30:51;;;;;;;44.20;26.90;;;3.30;99.90;;;;;;5133439;27;20051;-76
2024/03/07 03:33:17;;;;;;;43.27;25.27;;;3.30;99.90;;;;;;5133463;27;20023;-75
2024/03/07 03:35:43;;;;;;;43.57;26.67;;;3.30;99.90;;;;;;5132944;27;20051;-75
2024/03/07 03:38:09;;;;;;;40.03;25.27;;;3.30;99.90;;;;;;5122173;27;20051;-76
2024/03/07 03:40:35;;;;;;;44.10;26.67;;;3.20;99.90;;;;;;5108480;28;20039;-76
2024/03/07 03:43:00;;;;;;;47.97;27.70;;;3.20;99.90;;;;;;5101008;28;20017;-75
2024/03/07 03:45:26;;;;;;;45.97;26.30;;;3.20;99.90;;;;;;5091825;28;20016;-75
2024/03/07 03:47:52;;;;;;;49.57;27.43;;;3.20;99.90;;;;;;5092402;28;20016;-75
2024/03/07 03:50:18;;;;;;;47.50;28.50;;;3.20;99.90;;;;;;5091953;28;20111;-75
2024/03/07 03:52:44;;;;;;;50.43;28.83;;;3.20;99.90;;;;;;5092088;28;20095;-76
2024/03/07 03:55:11;;;;;;;50.20;28.80;;;3.20;99.90;;;;;;5091768;28;20035;-75
2024/03/07 03:57:41;;;;;;;50.93;30.07;;;3.20;99.90;;;;;;5092164;28;20032;-75
2024/03/07 04:00:14;;;;;;;49.90;30.10;;;3.20;99.90;;;;;;5092177;28;20030;-75
2024/03/07 04:02:41;;;;;;;51.73;29.97;;;3.20;99.90;;;;;;5122168;27;20027;-75
2024/03/07 04:05:11;;;;;;;49.47;31.37;;;3.10;99.90;;;;;;5132301;27;20019;-75
2024/03/07 04:07:37;;;;;;;51.87;31.33;;;3.10;99.90;;;;;;5132610;27;20030;-76
2024/03/07 04:10:06;;;;;;;53.57;30.97;;;3.10;99.90;;;;;;5132585;27;20453;-75
2024/03/07 04:12:33;;;;;;;54.27;32.90;;;3.10;99.90;;;;;;5132526;27;20026;-75
2024/03/07 04:14:59;;;;;;;54.63;32.30;;;3.00;99.90;;;;;;5132360;27;20023;-75
2024/03/07 04:17:24;;;;;;;54.93;31.47;;;3.00;99.90;;;;;;5132752;27;20481;-75
2024/03/07 04:19:51;;;;;;;50.23;31.97;;;2.90;99.90;;;;;;5132259;27;20019;-75
2024/03/07 04:22:18;;;;;;;52.20;32.07;;;2.90;99.90;;;;;;5132359;27;20023;-75
2024/03/07 04:24:45;;;;;;;47.50;31.07;;;2.90;99.90;;;;;;5131825;27;20042;-76
2024/03/07 04:27:10;;;;;;;55.37;32.50;;;2.90;99.90;;;;;;5132504;27;20083;-75
2024/03/07 04:29:36;;;;;;;54.97;33.03;;;2.90;99.90;;;;;;5132481;27;20433;-75
2024/03/07 04:32:03;;;;;;;55.37;34.03;;;2.90;99.90;;;;;;5132334;27;20019;-75
2024/03/07 04:34:30;;;;;;;51.30;32.90;;;2.90;99.90;;;;;;5131278;27;20023;-76
2024/03/07 04:36:57;;;;;;;60.43;35.30;;;2.80;99.90;;;;;;5132297;28;20088;-75
2024/03/07 04:39:32;;;;;;;54.87;34.17;;;2.80;99.90;;;;;;5132310;28;20038;-76
2024/03/07 04:42:02;;;;;;;55.95;34.40;;;2.70;99.90;;;;;;5108142;28;20039;-75
2024/03/07 04:44:28;;;;;;;57.13;35.17;;;2.70;99.90;;;;;;5091067;28;20025;-75
2024/03/07 04:46:57;;;;;;;64.67;37.73;;;2.70;99.90;;;;;;5091463;28;20024;-76
2024/03/07 04:49:27;;;;;;;61.40;36.90;;;2.60;99.90;;;;;;5091287;28;20129;-75
2024/03/07 04:51:59;;;;;;;61.67;36.97;;;2.60;99.90;;;;;;5091373;28;20028;-75
2024/03/07 04:54:25;;;;;;;63.17;38.67;;;2.60;99.90;;;;;;5090527;28;20032;-75
2024/03/07 04:56:52;;;;;;;68.57;38.57;;;2.60;99.90;;;;;;5091429;28;20384;-76
2024/03/07 04:59:19;;;;;;;69.07;39.87;;;2.50;99.90;;;;;;5091518;28;20114;-76
2024/03/07 05:01:46;;;;;;;61.37;38.97;;;2.50;99.90;;;;;;5113101;27;20088;-75
2024/03/07 05:04:13;;;;;;;66.10;38.10;;;2.50;99.90;;;;;;5135876;27;20031;-76
2024/03/07 05:06:39;;;;;;;65.93;38.97;;;2.50;99.90;;;;;;5135940;27;20050;-75
2024/03/07 05:09:09;;;;;;;68.53;40.90;;;2.40;99.90;;;;;;5136250;27;20475;-75
2024/03/07 05:11:35;;;;;;;69.43;40.23;;;2.40;99.90;;;;;;5136003;27;20483;-76
2024/03/07 05:14:02;;;;;;;67.00;40.73;;;2.40;99.90;;;;;;5119087;27;20027;-75
2024/03/07 05:16:28;;;;;;;67.53;39.03;;;2.40;99.90;;;;;;5114784;28;20028;-76
2024/03/07 05:18:55;;;;;;;68.20;40.37;;;2.40;99.90;;;;;;5114266;28;20073;-76
2024/03/07 05:23:59;;;;;;;81.27;50.77;;;2.30;99.90;;;;;;5114079;28;20020;-75
2024/03/07 05:26:26;;;;;;;73.10;44.77;;;2.30;99.90;;;;;;5114068;28;20024;-76
2024/03/07 05:28:57;;;;;;;70.33;43.03;;;2.30;99.90;;;;;;5111406;28;20015;-76
2024/03/07 05:31:23;;;;;;;67.97;39.20;;;2.30;99.90;;;;;;5114175;28;20102;-75
2024/03/07 05:33:48;;;;;;;68.43;40.27;;;2.30;99.90;;;;;;5115598;27;20115;-75
2024/03/07 05:36:17;;;;;;;65.20;38.63;;;2.30;99.90;;;;;;5113635;28;20681;-75
2024/03/07 05:38:43;;;;;;;66.60;38.37;;;2.30;99.90;;;;;;5114398;28;20027;-76
2024/03/07 05:41:12;;;;;;;67.80;40.27;;;2.30;99.90;;;;;;5113161;28;20027;-75
2024/03/07 05:43:41;;;;;;;68.67;40.43;;;2.30;99.90;;;;;;5111272;28;20015;-75
2024/03/07 05:46:10;;;;;;;67.40;40.00;;;2.20;99.90;;;;;;5111761;28;20445;-75
2024/03/07 05:48:36;;;;;;;68.20;40.23;;;2.20;99.90;;;;;;5111124;28;20106;-75
2024/03/07 05:51:02;;;;;;;69.87;40.20;;;2.20;99.90;;;;;;5113835;28;20115;-75
2024/03/07 05:53:28;;;;;;;71.77;43.63;;;2.20;99.90;;;;;;5113144;28;20030;-75
2024/03/07 05:55:54;;;;;;;76.73;44.17;;;2.20;99.90;;;;;;5110998;27;20474;-75
2024/03/07 05:58:20;;;;;;;78.30;43.53;;;2.20;99.90;;;;;;5114714;27;20072;-75
2024/03/07 06:00:49;;;;;;;76.70;46.30;;;2.30;99.90;;;;;;5121300;27;20031;-75
2024/03/07 06:03:17;;;;;;;78.00;44.37;;;2.30;99.90;;;;;;5110061;27;20019;-75
2024/03/07 06:05:43;;;;;;;74.00;43.13;;;2.30;99.90;;;;;;5108847;28;20023;-75
2024/03/07 06:08:09;;;;;;;74.77;42.97;;;2.30;99.90;;;;;;5109111;27;20624;-75
2024/03/07 06:10:34;;;;;;;71.30;42.27;;;2.30;99.90;;;;;;5111274;28;20090;-75
2024/03/07 06:13:00;;;;;;;74.57;42.07;;;2.30;99.90;;;;;;5108945;27;20115;-75
2024/03/07 06:15:25;;;;;;;65.30;40.00;;;2.40;99.90;;;;;;5115268;27;20101;-75
2024/03/07 06:17:51;;;;;;;71.50;42.97;;;2.40;99.90;;;;;;5117232;27;20030;-75
2024/03/07 06:20:25;;;;;;;71.00;41.27;;;2.40;99.90;;;;;;5116656;27;20407;-75
2024/03/07 06:22:54;;;;;;;68.75;40.97;;;2.40;99.90;;;;;;5116230;27;20481;-75
2024/03/07 06:25:23;;;;;;;71.73;41.57;;;2.40;99.90;;;;;;5119207;27;20039;-76
2024/03/07 06:27:49;;;;;;;68.90;42.53;;;2.40;99.90;;;;;;5117082;27;20034;-75
2024/03/07 06:30:18;;;;;;;68.80;41.77;;;2.40;99.90;;;;;;5122067;27;20488;-76
2024/03/07 06:32:46;;;;;;;70.43;41.27;;;2.50;99.90;;;;;;5112913;27;20111;-75
2024/03/07 06:35:12;;;;;;;73.53;42.77;;;2.50;99.90;;;;;;5116596;27;20131;-75
2024/03/07 06:37:37;;;;;;;71.67;41.03;;;2.50;99.90;;;;;;5107513;27;20028;-76
2024/03/07 06:40:09;;;;;;;69.40;41.33;;;2.50;99.90;;;;;;5114451;27;20345;-75
2024/03/07 06:42:36;;;;;;;71.57;41.77;;;2.50;99.90;;;;;;5115140;27;20032;-75
2024/03/07 06:45:02;;;;;;;74.90;43.20;;;2.50;99.90;;;;;;5111353;27;20102;-75
2024/03/07 06:47:28;;;;;;;71.90;42.30;;;2.50;99.90;;;;;;5109944;27;20028;-75
2024/03/07 06:49:54;;;;;;;71.33;42.40;;;2.50;99.90;;;;;;5114557;27;20170;-74
2024/03/07 06:52:20;;;;;;;67.73;41.63;;;2.50;99.90;;;;;;5114015;27;20103;-74
2024/03/07 06:54:46;;;;;;;71.03;42.40;;;2.60;99.90;;;;;;5112533;27;20020;-74
2024/03/07 06:57:11;;;;;;;67.97;41.80;;;2.60;99.90;;;;;;5111478;27;20157;-74
2024/03/07 06:59:37;;;;;;;70.73;42.97;;;2.60;99.90;;;;;;5113960;27;20099;-74
2024/03/07 07:02:03;;;;;;;66.33;40.53;;;2.60;99.90;;;;;;5108903;27;20161;-73
2024/03/07 07:04:41;;;;;;;67.73;41.60;;;2.60;99.90;;;;;;5113845;27;20133;-74
2024/03/07 07:07:12;;;;;;;68.30;41.33;;;2.60;99.90;;;;;;5123135;27;20096;-74
2024/03/07 07:09:38;;;;;;;69.07;41.53;;;2.60;99.90;;;;;;5123175;27;20463;-74
2024/03/07 07:12:04;;;;;;;72.87;41.33;;;2.60;99.90;;;;;;5118833;27;20026;-73
2024/03/07 07:14:29;;;;;;;65.63;41.37;;;2.60;99.90;;;;;;5117224;27;20015;-74
2024/03/07 07:16:59;;;;;;;64.13;38.77;;;2.70;99.90;;;;;;5116759;27;20027;-74
2024/03/07 07:19:25;;;;;;;64.80;40.53;;;2.70;99.90;;;;;;5114027;27;20023;-74
2024/03/07 07:21:53;;;;;;;67.00;39.63;;;2.70;99.90;;;;;;5116911;27;20506;-74
2024/03/07 07:24:21;;;;;;;70.47;43.53;;;2.70;99.90;;;;;;5115012;27;20024;-74
2024/03/07 07:26:47;;;;;;;66.60;40.90;;;2.80;99.90;;;;;;5120997;27;20015;-74
2024/03/07 07:29:13;;;;;;;66.93;40.80;;;2.80;99.90;;;;;;5112158;27;20024;-74
2024/03/07 07:31:38;;;;;;;64.70;39.77;;;2.80;99.90;;;;;;5115708;27;20020;-74
2024/03/07 07:34:04;;;;;;;70.50;42.93;;;2.80;99.90;;;;;;5120257;27;20023;-74
2024/03/07 07:36:30;;;;;;;71.57;41.63;;;2.90;99.90;;;;;;5115459;27;20136;-74
2024/03/07 07:38:55;;;;;;;69.23;41.87;;;2.90;99.90;;;;;;5112048;27;20030;-74
2024/03/07 07:41:21;;;;;;;65.00;40.77;;;2.90;99.90;;;;;;5110436;27;20080;-74
2024/03/07 07:43:47;;;;;;;70.07;42.23;;;2.90;99.90;;;;;;5111788;27;20028;-74
2024/03/07 07:46:14;;;;;;;65.07;40.87;;;3.00;99.90;;;;;;5115255;27;20036;-73
2024/03/07 07:48:41;;;;;;;65.97;39.40;;;3.00;99.90;;;;;;5111548;27;20032;-74
2024/03/07 07:51:07;;;;;;;68.87;42.37;;;3.10;99.90;;;;;;5114444;27;20016;-74
2024/03/07 07:53:32;;;;;;;70.47;41.67;;;3.00;99.90;;;;;;5115153;27;20487;-74
2024/03/07 07:55:58;;;;;;;66.93;41.80;;;3.00;99.90;;;;;;5120651;27;20027;-75
2024/03/07 07:58:23;;;;;;;68.17;43.03;;;3.10;99.90;;;;;;5116582;27;20055;-74
2024/03/07 08:00:50;;;;;;;63.93;41.03;;;3.10;99.90;;;;;;5118850;27;20142;-74
2024/03/07 08:03:17;;;;;;;72.87;42.80;;;3.10;99.90;;;;;;5118380;27;20115;-73
2024/03/07 08:05:44;;;;;;;70.00;42.53;;;3.10;99.90;;;;;;5117344;27;20468;-74
2024/03/07 08:08:13;;;;;;;70.40;42.23;;;3.00;99.90;;;;;;5120408;27;20462;-74
2024/03/07 08:10:39;;;;;;;70.93;42.17;;;3.00;99.90;;;;;;5112205;28;20407;-74
2024/03/07 08:13:10;;;;;;;69.60;43.07;;;3.10;99.90;;;;;;5108633;27;20488;-74
2024/03/07 08:15:36;;;;;;;70.07;41.73;;;3.00;99.90;;;;;;5110637;27;20008;-73
2024/03/07 08:18:01;;;;;;;70.40;42.73;;;3.00;99.90;;;;;;5111419;28;20364;-73
2024/03/07 08:20:28;;;;;;;75.03;43.83;;;3.00;99.90;;;;;;5112687;27;20032;-74
2024/03/07 08:22:55;;;;;;;71.00;42.87;;;3.10;99.90;;;;;;5114147;27;20020;-74
2024/03/07 08:25:25;;;;;;;72.97;42.47;;;3.10;99.90;;;;;;5115176;27;20432;-74
2024/03/07 08:27:53;;;;;;;70.57;43.07;;;3.10;99.90;;;;;;5111838;27;20546;-74
2024/03/07 08:30:19;;;;;;;71.10;44.30;;;3.10;99.90;;;;;;5110095;27;20015;-74
2024/03/07 08:32:47;;;;;;;67.73;42.40;;;3.20;99.90;;;;;;5113365;28;20092;-74
2024/03/07 08:35:13;;;;;;;69.67;43.83;;;3.20;99.90;;;;;;5118441;27;20020;-73
2024/03/07 08:37:39;;;;;;;66.93;41.83;;;3.20;99.90;;;;;;5120973;27;20487;-74
2024/03/07 08:40:06;;;;;;;73.17;43.93;;;3.20;99.90;;;;;;5115238;28;20482;-74
2024/03/07 08:42:36;;;;;;;72.73;43.43;;;3.20;99.90;;;;;;5113057;28;20391;-74
2024/03/07 08:45:04;;;;;;;71.83;42.10;;;3.20;99.90;;;;;;5108817;28;20020;-73
2024/03/07 08:47:37;;;;;;;70.00;41.40;;;3.20;99.90;;;;;;5114993;28;20527;-73
2024/03/07 08:50:08;;;;;;;70.57;41.03;;;3.30;99.90;;;;;;5126721;28;20095;-74
2024/03/07 08:52:36;;;;;;;68.13;41.93;;;3.30;99.90;;;;;;5118007;28;20046;-74
2024/03/07 08:55:03;;;;;;;70.17;42.07;;;3.30;99.90;;;;;;5106478;28;20487;-74
2024/03/07 08:57:28;;;;;;;72.17;42.83;;;3.40;99.90;;;;;;5117753;28;20088;-74
2024/03/07 08:59:54;;;;;;;69.33;41.07;;;3.40;99.90;;;;;;5115948;27;20019;-74
2024/03/07 09:02:20;;;;;;;69.37;42.27;;;3.50;99.90;;;;;;5114835;28;20476;-74
2024/03/07 09:04:46;;;;;;;69.93;42.83;;;3.50;99.90;;;;;;5114679;28;20031;-74
2024/03/07 09:07:11;;;;;;;76.13;44.03;;;3.50;99.90;;;;;;5113176;28;20015;-74
2024/03/07 09:09:37;;;;;;;69.13;41.20;;;3.60;99.90;;;;;;5094387;28;20016;-75
2024/03/07 09:12:03;;;;;;;63.13;39.33;;;3.70;99.90;;;;;;5113199;28;20383;-74
2024/03/07 09:14:29;;;;;;;69.57;42.57;;;3.70;99.90;;;;;;5110509;28;20447;-74
2024/03/07 09:16:55;;;;;;;75.33;41.77;;;3.70;99.90;;;;;;5112365;28;20395;-74
2024/03/07 09:19:23;;;;;;;74.73;41.87;;;3.70;99.90;;;;;;5112776;28;20476;-74
2024/03/07 09:21:51;;;;;;;66.23;41.83;;;3.80;99.90;;;;;;5116103;28;20032;-74
2024/03/07 09:24:16;;;;;;;70.70;42.17;;;3.80;99.90;;;;;;5108550;28;20111;-74
2024/03/07 09:26:42;;;;;;;69.50;43.53;;;3.80;99.90;;;;;;5113237;27;20102;-75
2024/03/07 09:29:07;;;;;;;71.10;43.10;;;3.80;99.90;;;;;;5112036;28;20023;-74
2024/03/07 09:31:33;;;;;;;74.27;43.43;;;3.80;99.90;;;;;;5112833;28;20026;-73
2024/03/07 09:33:59;;;;;;;67.50;42.27;;;3.80;99.90;;;;;;5113867;28;20474;-74
2024/03/07 09:36:25;;;;;;;68.80;41.10;;;3.90;99.90;;;;;;5118032;27;20052;-74
2024/03/07 09:38:51;;;;;;;70.57;41.67;;;3.90;99.90;;;;;;5118130;28;20030;-74
2024/03/07 09:41:17;;;;;;;64.83;40.67;;;4.00;99.90;;;;;;5113384;28;20040;-73
2024/03/07 09:43:53;;;;;;;64.73;39.37;;;4.10;99.90;;;;;;5114430;28;20027;-74
2024/03/07 09:46:19;;;;;;;64.13;41.47;;;4.20;99.90;;;;;;5114661;28;20789;-74
2024/03/07 09:48:44;;;;;;;65.17;38.40;;;4.30;99.90;;;;;;5115846;27;20487;-74
2024/03/07 09:51:11;;;;;;;60.83;38.90;;;4.40;99.90;;;;;;5114883;27;20035;-74
2024/03/07 09:53:37;;;;;;;58.00;36.87;;;4.50;99.90;;;;;;5113711;27;20483;-74
2024/03/07 09:56:06;;;;;;;59.33;36.67;;;4.70;99.90;;;;;;5114240;27;20116;-74
2024/03/07 09:58:33;;;;;;;60.57;38.20;;;4.80;99.90;;;;;;5115302;27;20427;-74
2024/03/07 10:01:02;;;;;;;61.57;38.30;;;4.80;99.90;;;;;;5107043;27;20016;-74
2024/03/07 10:03:29;;;;;;;64.40;38.87;;;4.80;99.90;;;;;;5110743;27;20007;-74
2024/03/07 10:05:55;;;;;;;61.93;37.70;;;4.80;99.90;;;;;;5115112;27;20478;-74
2024/03/07 10:08:22;;;;;;;62.10;36.23;;;5.00;99.90;;;;;;5113497;27;20024;-74
2024/03/07 10:10:50;;;;;;;59.40;37.63;;;5.00;99.90;;;;;;5118380;27;20046;-74
2024/03/07 10:13:17;;;;;;;62.77;38.50;;;5.10;99.90;;;;;;5116192;27;20019;-74
2024/03/07 10:15:43;;;;;;;57.63;37.27;;;5.20;99.90;;;;;;5120830;27;20034;-74
2024/03/07 10:18:13;;;;;;;55.63;35.97;;;5.40;99.90;;;;;;5113965;27;20027;-74
2024/03/07 10:20:42;;;;;;;60.03;36.13;;;5.40;99.90;;;;;;5110430;27;20318;-74
2024/03/07 10:23:07;;;;;;;55.67;35.80;;;5.50;99.90;;;;;;5114950;27;20024;-74
2024/03/07 10:25:33;;;;;;;57.07;36.83;;;5.50;99.90;;;;;;5114014;27;20067;-74
2024/03/07 10:28:00;;;;;;;53.53;33.37;;;5.60;99.90;;;;;;5118493;27;20125;-74
2024/03/07 10:30:29;;;;;;;50.47;32.77;;;5.70;99.90;;;;;;5121694;27;20012;-74
2024/03/07 10:32:59;;;;;;;50.43;31.67;;;5.80;99.90;;;;;;5115750;27;20031;-74
2024/03/07 10:35:25;;;;;;;45.93;30.87;;;5.90;99.90;;;;;;5112074;27;20023;-75
2024/03/07 10:37:54;;;;;;;51.93;31.00;;;6.00;99.90;;;;;;5117506;27;20065;-75
2024/03/07 10:40:22;;;;;;;49.50;31.80;;;6.10;99.90;;;;;;5120067;27;20058;-74
2024/03/07 10:42:54;;;;;;;48.23;30.90;;;6.30;99.90;;;;;;5118020;27;20012;-75
2024/03/07 10:45:24;;;;;;;51.73;31.50;;;6.40;99.90;;;;;;5123420;27;20026;-74
2024/03/07 10:47:54;;;;;;;45.97;29.43;;;6.60;99.90;;;;;;5122114;27;20076;-75
2024/03/07 10:50:28;;;;;;;49.10;30.13;;;6.70;99.90;;;;;;5117178;27;20070;-74
2024/03/07 10:53:12;;;;;;;46.42;29.85;;;6.80;99.90;;;;;;5114184;27;20024;-74
2024/03/07 10:56:03;;;;;;;46.93;31.47;;;6.70;99.90;;;;;;5111505;27;20503;-74
2024/03/07 10:58:59;;;;;;;46.53;31.27;;;6.70;99.90;;;;;;5117456;27;20110;-74
2024/03/07 11:01:26;;;;;;;43.70;29.40;;;6.80;99.90;;;;;;5113583;27;20023;-75
2024/03/07 11:03:53;;;;;;;44.20;28.50;;;6.80;99.90;;;;;;5116687;27;20396;-74
2024/03/07 11:06:20;;;;;;;54.30;30.20;;;6.80;99.90;;;;;;5110600;27;20027;-75
2024/03/07 11:08:46;;;;;;;45.90;29.83;;;6.80;99.90;;;;;;5113990;27;20034;-74
2024/03/07 11:11:13;;;;;;;46.33;28.70;;;6.80;99.90;;;;;;5110441;27;20035;-74
2024/03/07 11:13:40;;;;;;;43.80;27.77;;;6.80;99.90;;;;;;5114640;27;20191;-75
2024/03/07 11:16:06;;;;;;;48.03;30.10;;;6.70;99.90;;;;;;5115224;27;20391;-75
2024/03/07 11:18:33;;;;;;;47.20;29.23;;;6.80;99.90;;;;;;5120264;27;20028;-74
2024/03/07 11:20:58;;;;;;;42.03;27.87;;;6.80;99.90;;;;;;5110383;27;20027;-75
2024/03/07 11:23:26;;;;;;;44.03;28.20;;;7.00;99.90;;;;;;5116299;27;20561;-74
2024/03/07 11:25:54;;;;;;;47.87;28.93;;;7.30;99.90;;;;;;5116196;27;20030;-74
2024/03/07 11:28:20;;;;;;;42.20;28.87;;;7.40;99.90;;;;;;5110238;27;20027;-74
2024/03/07 11:30:46;;;;;;;44.53;27.63;;;7.50;99.90;;;;;;5115827;27;20034;-74
2024/03/07 11:33:14;;;;;;;42.33;26.83;;;7.40;99.90;;;;;;5121683;27;20019;-75
2024/03/07 11:35:40;;;;;;;41.23;28.00;;;7.40;99.90;;;;;;5106405;27;20016;-75
2024/03/07 11:38:08;;;;;;;43.17;28.33;;;7.40;99.90;;;;;;5116881;27;20019;-75
2024/03/07 11:40:33;;;;;;;44.30;28.30;;;7.40;99.90;;;;;;5115699;27;20353;-75
2024/03/07 11:43:04;;;;;;;40.80;26.67;;;7.40;99.90;;;;;;5113272;27;20111;-75
2024/03/07 11:45:33;;;;;;;44.93;27.20;;;7.60;99.90;;;;;;5114522;27;20031;-75
2024/03/07 11:48:06;;;;;;;38.93;27.90;;;7.80;99.90;;;;;;5116568;27;20016;-77
2024/03/07 11:50:34;;;;;;;43.33;27.27;;;7.90;99.90;;;;;;5111695;27;20024;-75
2024/03/07 11:53:01;;;;;;;40.07;28.30;;;8.00;99.90;;;;;;5113016;27;20023;-75
2024/03/07 11:55:33;;;;;;;43.13;26.87;;;7.90;99.90;;;;;;5114371;27;20529;-74
2024/03/07 11:57:59;;;;;;;47.03;28.57;;;7.90;99.90;;;;;;5117065;27;20035;-75
2024/03/07 12:00:29;;;;;;;41.43;28.20;;;7.80;99.90;;;;;;5110577;27;20027;-77
2024/03/07 12:02:55;;;;;;;43.97;28.47;;;7.80;99.90;;;;;;5108801;27;20019;-75
2024/03/07 12:05:20;;;;;;;42.00;27.33;;;7.70;99.90;;;;;;5118320;27;20077;-74
2024/03/07 12:07:47;;;;;;;47.20;28.93;;;7.60;99.90;;;;;;5118054;27;20020;-75
2024/03/07 12:10:12;;;;;;;40.37;27.77;;;7.50;99.90;;;;;;5115290;27;20620;-74
2024/03/07 12:12:38;;;;;;;37.43;26.27;;;7.50;99.90;;;;;;5113568;27;20020;-74
2024/03/07 12:15:09;;;;;;;39.77;27.47;;;7.50;99.90;;;;;;5114618;27;20464;-74
2024/03/07 12:17:35;;;;;;;42.43;28.03;;;7.40;99.90;;;;;;5119216;27;20055;-75
2024/03/07 12:20:24;;;;;;;42.70;27.63;;;7.40;99.90;;;;;;5113995;27;20043;-74
2024/03/07 12:22:48;;;;;;;41.93;27.07;;;7.40;99.90;;;;;;5106872;27;20039;-74
2024/03/07 12:25:21;;;;;;;44.27;27.93;;;7.30;99.90;;;;;;5113032;27;20024;-74
2024/03/07 12:27:48;;;;;;;40.60;27.57;;;7.20;99.90;;;;;;5117066;27;20075;-74
2024/03/07 12:30:19;;;;;;;44.13;27.37;;;7.20;99.90;;;;;;5115912;27;20019;-74
2024/03/07 12:32:52;;;;;;;43.17;26.13;;;7.10;99.90;;;;;;5108859;28;20024;-74
2024/03/07 12:35:18;;;;;;;39.57;25.13;;;7.00;99.90;;;;;;5109017;28;20111;-74
2024/03/07 12:37:46;;;;;;;36.87;24.40;;;7.00;99.90;;;;;;5112542;27;20023;-74